createdAt,value
2023-12-30T00:01:36.169Z,97863.25
2023-12-30T00:04:03.278Z,97853.69
2023-12-30T00:06:30.089Z,97857.41
2023-12-30T00:08:56.744Z,97862.47
2023-12-30T00:11:23.500Z,97867.50
2023-12-30T00:13:50.107Z,97861.38
2023-12-30T00:16:16.760Z,97865.91
2023-12-30T00:18:43.505Z,97860.34
2023-12-30T00:21:10.672Z,97865.94
2023-12-30T00:23:43.309Z,97865.41
2023-12-30T00:26:22.491Z,97868.84
2023-12-30T00:28:50.074Z,97876.81
2023-12-30T00:31:26.036Z,97877.91
2023-12-30T00:33:53.904Z,97887.47
2023-12-30T00:36:20.609Z,97890.94
2023-12-30T00:38:47.244Z,97894.41
2023-12-30T00:41:14.412Z,97900.50
2023-12-30T00:43:44.576Z,97904.72
2023-12-30T00:46:11.210Z,97902.38
2023-12-30T00:48:37.909Z,97906.59
2023-12-30T00:51:04.697Z,97906.06
2023-12-30T00:53:31.347Z,97902.63
2023-12-30T00:55:58.116Z,97914.03
2023-12-30T00:58:25.194Z,97901.56
2023-12-30T01:00:52.165Z,97901.56
2023-12-30T01:03:18.871Z,97895.69
2023-12-30T01:05:45.815Z,97899.97
2023-12-30T01:08:12.674Z,97900.75
2023-12-30T01:10:39.576Z,97901.81
2023-12-30T01:13:09.635Z,97899.97
2023-12-30T01:15:36.436Z,97906.31
2023-12-30T01:18:04.088Z,97913.53
2023-12-30T01:20:31.300Z,97912.16
2023-12-30T01:22:58.043Z,97916.69
2023-12-30T01:25:24.765Z,97919.38
2023-12-30T01:27:51.500Z,97915.34
2023-12-30T01:30:18.308Z,97915.88
2023-12-30T01:32:45.861Z,97928.38
2023-12-30T01:35:12.578Z,97914.81
2023-12-30T01:37:40.307Z,97923.34
2023-12-30T01:40:07.477Z,97932.13
2023-12-30T01:42:34.112Z,97931.31
2023-12-30T01:45:00.806Z,97928.66
2023-12-30T01:47:27.458Z,97935.56
2023-12-30T01:49:54.221Z,97917.22
2023-12-30T01:52:20.997Z,97926.53
2023-12-30T01:54:47.888Z,97914.31
2023-12-30T01:57:14.571Z,97924.94
2023-12-30T01:59:41.280Z,97924.38
2023-12-30T02:02:08.050Z,97927.59
2023-12-30T02:04:34.823Z,97928.63
2023-12-30T02:07:01.626Z,97930.50
2023-12-30T02:09:28.524Z,97936.63
2023-12-30T02:11:55.239Z,97925.47
2023-12-30T02:14:25.350Z,97935.03
2023-12-30T02:16:52.117Z,97937.94
2023-12-30T02:19:18.882Z,97925.47
2023-12-30T02:21:45.947Z,97933.50
2023-12-30T02:24:13.318Z,97940.94
2023-12-30T02:26:41.017Z,97941.75
2023-12-30T02:29:08.294Z,97951.31
2023-12-30T02:31:36.845Z,97940.13
2023-12-30T02:34:03.613Z,97952.59
2023-12-30T02:36:30.282Z,97955.75
2023-12-30T02:38:57.660Z,97957.06
2023-12-30T02:41:24.582Z,97957.88
2023-12-30T02:43:56.167Z,97962.94
2023-12-30T02:46:22.844Z,97961.59
2023-12-30T02:48:49.603Z,97964.78
2023-12-30T02:51:16.786Z,97969.66
2023-12-30T02:53:43.416Z,97965.97
2023-12-30T02:56:23.668Z,97971.19
2023-12-30T02:58:57.508Z,97979.69
2023-12-30T03:01:25.971Z,97972.59
2023-12-30T03:03:53.556Z,97973.94
2023-12-30T03:06:21.292Z,97973.97
2023-12-30T03:08:50.891Z,97974.00
2023-12-30T03:11:17.703Z,97969.97
2023-12-30T03:13:44.428Z,97976.38
2023-12-30T03:16:17.528Z,97970.25
2023-12-30T03:18:44.767Z,97977.16
2023-12-30T03:21:14.070Z,97979.81
2023-12-30T03:23:40.854Z,97979.81
2023-12-30T03:26:09.157Z,97990.22
2023-12-30T03:28:35.849Z,97989.94
2023-12-30T03:31:02.600Z,97988.63
2023-12-30T03:33:29.351Z,97987.75
2023-12-30T03:35:56.098Z,97985.16
2023-12-30T03:38:22.751Z,97983.69
2023-12-30T03:40:49.431Z,97981.03
2023-12-30T03:43:16.116Z,97977.56
2023-12-30T03:45:42.843Z,97978.09
2023-12-30T03:48:09.830Z,97980.78
2023-12-30T03:50:38.417Z,97974.91
2023-12-30T03:53:06.266Z,97974.59
2023-12-30T03:55:33.058Z,97974.59
2023-12-30T03:58:00.109Z,97979.66
2023-12-30T04:00:26.859Z,97980.19
2023-12-30T04:02:53.671Z,97975.41
2023-12-30T04:05:20.432Z,97977.28
2023-12-30T04:07:47.128Z,97979.41
2023-12-30T04:10:16.323Z,97976.19
2023-12-30T04:12:43.383Z,97978.03
2023-12-30T04:15:10.850Z,97989.22
2023-12-30T04:17:38.106Z,97979.41
2023-12-30T04:20:06.798Z,97985.25
2023-12-30T04:22:33.994Z,97983.88
2023-12-30T04:25:01.187Z,97994.81
2023-12-30T04:27:28.602Z,97999.81
2023-12-30T04:29:55.373Z,97999.31
2023-12-30T04:32:22.399Z,98005.69
2023-12-30T04:34:50.124Z,98004.38
2023-12-30T04:37:17.008Z,98008.09
2023-12-30T04:39:43.702Z,98011.56
2023-12-30T04:42:10.344Z,98007.84
2023-12-30T04:44:37.008Z,98009.97
2023-12-30T04:47:03.638Z,98007.66
2023-12-30T04:49:30.393Z,98011.94
2023-12-30T04:51:57.172Z,98013.81
2023-12-30T04:54:24.103Z,98013.28
2023-12-30T04:56:52.373Z,98017.25
2023-12-30T04:59:19.635Z,98025.97
2023-12-30T05:01:46.300Z,98023.94
2023-12-30T05:04:12.986Z,98033.38
2023-12-30T05:06:39.627Z,98034.16
2023-12-30T05:09:07.032Z,98031.00
2023-12-30T05:11:33.676Z,98035.03
2023-12-30T05:14:00.627Z,98040.13
2023-12-30T05:16:27.438Z,98047.03
2023-12-30T05:18:54.364Z,98043.56
2023-12-30T05:21:21.130Z,98056.72
2023-12-30T05:23:47.822Z,98054.31
2023-12-30T05:26:14.785Z,98052.47
2023-12-30T05:28:41.473Z,98055.91
2023-12-30T05:31:08.481Z,98057.53
2023-12-30T05:33:35.503Z,98049.53
2023-12-30T05:36:02.201Z,98051.13
2023-12-30T05:38:28.853Z,98053.28
2023-12-30T05:40:55.529Z,98052.38
2023-12-30T05:43:24.124Z,98053.38
2023-12-30T05:45:51.000Z,98059.16
2023-12-30T05:48:17.879Z,98055.94
2023-12-30T05:50:44.649Z,98055.13
2023-12-30T05:53:12.343Z,98054.59
2023-12-30T05:55:42.015Z,98062.59
2023-12-30T05:58:08.804Z,98060.44
2023-12-30T06:00:36.250Z,98060.44
2023-12-30T06:03:03.287Z,98054.09
2023-12-30T06:05:30.496Z,98064.97
2023-12-30T06:07:57.213Z,98061.50
2023-12-30T06:10:24.699Z,98072.44
2023-12-30T06:12:51.947Z,98063.97
2023-12-30T06:15:21.576Z,98063.69
2023-12-30T06:17:48.478Z,98059.16
2023-12-30T06:20:15.262Z,98052.72
2023-12-30T06:22:41.878Z,98064.47
2023-12-30T06:25:08.727Z,98053.59
2023-12-30T06:27:35.494Z,98059.16
2023-12-30T06:30:02.708Z,98052.72
2023-12-30T06:32:29.510Z,98058.31
2023-12-30T06:34:56.361Z,98057.78
2023-12-30T06:37:23.005Z,98058.28
2023-12-30T06:39:49.773Z,98073.22
2023-12-30T06:42:16.416Z,98070.00
2023-12-30T06:44:43.026Z,98070.25
2023-12-30T06:47:09.710Z,98073.72
2023-12-30T06:49:40.467Z,98080.34
2023-12-30T06:52:07.681Z,98084.31
2023-12-30T06:54:34.979Z,98090.13
2023-12-30T06:57:01.778Z,98090.41
2023-12-30T06:59:28.580Z,98092.28
2023-12-30T07:01:55.223Z,98091.72
2023-12-30T07:04:22.679Z,98097.34
2023-12-30T07:06:49.441Z,98106.91
2023-12-30T07:09:16.150Z,98114.63
2023-12-30T07:11:42.805Z,98107.94
2023-12-30T07:14:09.485Z,98117.13
2023-12-30T07:16:36.213Z,98121.59
2023-12-30T07:19:03.473Z,98121.06
2023-12-30T07:21:30.893Z,98130.88
2023-12-30T07:23:57.569Z,98131.94
2023-12-30T07:26:24.214Z,98139.13
2023-12-30T07:28:50.851Z,98140.69
2023-12-30T07:31:17.626Z,98143.38
2023-12-30T07:33:44.480Z,98151.34
2023-12-30T07:36:12.089Z,98149.69
2023-12-30T07:38:38.716Z,98150.50
2023-12-30T07:41:05.337Z,98154.47
2023-12-30T07:43:32.063Z,98153.41
2023-12-30T07:45:59.028Z,98151.25
2023-12-30T07:48:25.693Z,98157.13
2023-12-30T07:50:52.357Z,98163.25
2023-12-30T07:53:18.964Z,98160.56
2023-12-30T07:55:45.746Z,98164.84
2023-12-30T07:58:12.429Z,98164.72
2023-12-30T08:00:39.353Z,98164.72
2023-12-30T08:03:06.559Z,98168.66
2023-12-30T08:05:33.524Z,98172.84
2023-12-30T08:08:00.230Z,98180.88
2023-12-30T08:10:26.981Z,98181.66
2023-12-30T08:12:53.660Z,98175.75
2023-12-30T08:15:20.403Z,98186.44
2023-12-30T08:17:47.228Z,98191.72
2023-12-30T08:20:14.522Z,98180.00
2023-12-30T08:22:41.227Z,98181.84
2023-12-30T08:25:09.478Z,98177.31
2023-12-30T08:27:36.552Z,98183.75
2023-12-30T08:30:04.221Z,98190.69
2023-12-30T08:32:30.928Z,98183.22
2023-12-30T08:34:58.605Z,98184.84
2023-12-30T08:37:25.490Z,98188.03
2023-12-30T08:39:52.193Z,98185.13
2023-12-30T08:42:19.214Z,98188.84
2023-12-30T08:44:45.868Z,98196.03
2023-12-30T08:47:12.830Z,98194.44
2023-12-30T08:49:39.694Z,98200.31
2023-12-30T08:52:06.487Z,98203.50
2023-12-30T08:54:33.228Z,98202.66
2023-12-30T08:56:59.954Z,98235.63
2023-12-30T08:59:27.070Z,98242.78
2023-12-30T09:01:53.884Z,98224.16
2023-12-30T09:04:20.828Z,98221.50
2023-12-30T09:06:47.826Z,98207.16
2023-12-30T09:09:14.493Z,98211.44
2023-12-30T09:11:41.329Z,98202.41
2023-12-30T09:14:08.012Z,98204.00
2023-12-30T09:16:34.826Z,98200.00
2023-12-30T09:19:01.728Z,98205.00
2023-12-30T09:21:30.692Z,98205.00
2023-12-30T09:23:58.242Z,98208.28
2023-12-30T09:26:25.548Z,98219.44
2023-12-30T09:28:53.297Z,98220.44
2023-12-30T09:31:21.615Z,98225.25
2023-12-30T09:33:50.287Z,98217.78
2023-12-30T09:36:18.462Z,98218.34
2023-12-30T09:38:45.330Z,98222.06
2023-12-30T09:41:14.134Z,98218.84
2023-12-30T09:43:40.909Z,98229.50
2023-12-30T09:46:07.579Z,98231.34
2023-12-30T09:48:34.450Z,98230.00
2023-12-30T09:51:01.102Z,98228.94
2023-12-30T09:53:28.341Z,98230.00
2023-12-30T09:55:55.222Z,98223.88
2023-12-30T09:58:22.523Z,98231.06
2023-12-30T10:00:49.722Z,98231.31
2023-12-30T10:03:17.522Z,98224.38
2023-12-30T10:05:44.488Z,98224.94
2023-12-30T10:08:11.503Z,98223.34
2023-12-30T10:10:45.167Z,98220.16
2023-12-30T10:13:17.611Z,98220.97
2023-12-30T10:15:44.478Z,98220.97
2023-12-30T10:18:11.746Z,98216.44
2023-12-30T10:20:40.263Z,98219.91
2023-12-30T10:23:07.914Z,98219.09
2023-12-30T10:25:35.320Z,98222.56
2023-12-30T10:28:02.594Z,98231.34
2023-12-30T10:30:31.752Z,98224.16
2023-12-30T10:33:14.868Z,98232.97
2023-12-30T10:35:45.424Z,98222.06
2023-12-30T10:38:14.015Z,98234.06
2023-12-30T10:40:41.273Z,98235.38
2023-12-30T10:43:10.023Z,98234.09
2023-12-30T10:45:37.076Z,98232.22
2023-12-30T10:48:04.057Z,98231.19
2023-12-30T10:50:31.931Z,98230.13
2023-12-30T10:53:03.628Z,98227.22
2023-12-30T10:55:36.743Z,98220.31
2023-12-30T10:58:20.843Z,98226.72
2023-12-30T11:00:57.378Z,98228.03
2023-12-30T11:03:24.625Z,98225.13
2023-12-30T11:06:02.860Z,98229.38
2023-12-30T11:08:29.798Z,98227.28
2023-12-30T11:10:59.379Z,98222.47
2023-12-30T11:13:26.248Z,98227.28
2023-12-30T11:15:53.233Z,98221.38
2023-12-30T11:18:46.965Z,98225.91
2023-12-30T11:21:14.086Z,98216.59
2023-12-30T11:23:40.744Z,98214.22
2023-12-30T11:26:07.367Z,98217.41
2023-12-30T11:28:34.094Z,98220.63
2023-12-30T11:31:01.442Z,98211.59
2023-12-30T11:33:28.502Z,98209.47
2023-12-30T11:35:55.730Z,98212.94
2023-12-30T11:38:22.473Z,98214.09
2023-12-30T11:40:53.306Z,98205.09
2023-12-30T11:43:21.453Z,98198.34
2023-12-30T11:45:48.983Z,98197.84
2023-12-30T11:48:16.053Z,98199.94
2023-12-30T11:50:43.362Z,98195.94
2023-12-30T11:53:10.034Z,98181.88
2023-12-30T11:55:36.765Z,98188.06
2023-12-30T11:58:03.630Z,98182.75
2023-12-30T12:00:30.354Z,98186.22
2023-12-30T12:02:58.098Z,98188.34
2023-12-30T12:05:24.746Z,98182.75
2023-12-30T12:07:51.410Z,98182.75
2023-12-30T12:10:18.490Z,98185.69
2023-12-30T12:12:46.928Z,98195.28
2023-12-30T12:15:14.467Z,98187.31
2023-12-30T12:17:41.737Z,98185.41
2023-12-30T12:20:09.943Z,98188.06
2023-12-30T12:22:37.355Z,98218.50
2023-12-30T12:25:04.340Z,98220.88
2023-12-30T12:27:31.235Z,98214.78
2023-12-30T12:29:57.915Z,98208.53
2023-12-30T12:32:25.386Z,98206.91
2023-12-30T12:34:55.196Z,98203.19
2023-12-30T12:37:23.178Z,98199.41
2023-12-30T12:39:49.849Z,98194.75
2023-12-30T12:42:26.980Z,98188.34
2023-12-30T12:44:57.549Z,98181.38
2023-12-30T12:47:24.358Z,98190.41
2023-12-30T12:49:51.092Z,98183.50
2023-12-30T12:52:17.826Z,98176.47
2023-12-30T12:54:44.763Z,98183.50
2023-12-30T12:57:11.769Z,98181.34
2023-12-30T12:59:39.182Z,98146.53
2023-12-30T13:02:06.132Z,98138.81
2023-12-30T13:04:32.854Z,98142.84
2023-12-30T13:06:59.585Z,98153.25
2023-12-30T13:09:46.531Z,98146.78
2023-12-30T13:12:14.340Z,98149.06
2023-12-30T13:14:42.497Z,98171.25
2023-12-30T13:17:13.632Z,98148.88
2023-12-30T13:19:45.241Z,98172.19
2023-12-30T13:22:12.497Z,98168.06
2023-12-30T13:24:39.509Z,98139.97
2023-12-30T13:27:13.232Z,98139.63
2023-12-30T13:29:39.998Z,98133.81
2023-12-30T13:32:06.911Z,98135.13
2023-12-30T13:34:35.590Z,98136.63
2023-12-30T13:37:07.239Z,98130.88
2023-12-30T13:39:35.212Z,98132.28
2023-12-30T13:42:05.587Z,98132.75
2023-12-30T13:44:42.091Z,98137.47
2023-12-30T13:47:27.771Z,98140.75
2023-12-30T13:50:12.492Z,98170.63
2023-12-30T13:52:39.181Z,98171.47
2023-12-30T13:55:14.182Z,98164.53
2023-12-30T13:57:41.710Z,98128.69
2023-12-30T14:00:08.776Z,98130.38
2023-12-30T14:02:39.761Z,98126.44
2023-12-30T14:05:08.885Z,98134.53
2023-12-30T14:07:35.867Z,98126.38
2023-12-30T14:10:07.652Z,98129.47
2023-12-30T14:12:35.900Z,98128.66
2023-12-30T14:15:07.869Z,98130.31
2023-12-30T14:17:36.290Z,98133.88
2023-12-30T14:20:06.495Z,98123.91
2023-12-30T14:22:33.640Z,98139.09
2023-12-30T14:25:01.389Z,98138.50
2023-12-30T14:27:28.111Z,98143.34
2023-12-30T14:29:59.201Z,98138.44
2023-12-30T14:32:26.076Z,98140.56
2023-12-30T14:34:53.242Z,98141.06
2023-12-30T14:37:20.023Z,98135.88
2023-12-30T14:39:46.711Z,98141.28
2023-12-30T14:42:13.463Z,98130.19
2023-12-30T14:44:40.803Z,98143.56
2023-12-30T14:47:07.418Z,98140.25
2023-12-30T14:49:34.109Z,98141.25
2023-12-30T14:52:00.826Z,98144.13
2023-12-30T14:54:27.477Z,98143.03
2023-12-30T14:56:54.650Z,98136.38
2023-12-30T14:59:21.332Z,98139.41
2023-12-30T15:01:48.283Z,98130.03
2023-12-30T15:04:14.981Z,98125.13
2023-12-30T15:06:42.548Z,98126.59
2023-12-30T15:09:11.106Z,98131.06
2023-12-30T15:11:37.905Z,98129.34
2023-12-30T15:14:06.249Z,98119.16
2023-12-30T15:16:33.085Z,98122.50
2023-12-30T15:19:00.528Z,98132.03
2023-12-30T15:21:27.434Z,98124.28
2023-12-30T15:23:54.178Z,98126.81
2023-12-30T15:26:20.912Z,98125.41
2023-12-30T15:28:48.272Z,98129.06
2023-12-30T15:31:15.017Z,98130.03
2023-12-30T15:33:41.850Z,98126.06
2023-12-30T15:36:08.581Z,98118.09
2023-12-30T15:42:13.193Z,98125.09
2023-12-30T15:44:39.896Z,98125.41
2023-12-30T15:47:08.494Z,98131.78
2023-12-30T15:49:35.573Z,98128.13
2023-12-30T15:52:02.352Z,98128.47
2023-12-30T15:54:29.056Z,98132.91
2023-12-30T15:56:55.691Z,98123.25
2023-12-30T15:59:22.304Z,98120.84
2023-12-30T16:01:49.410Z,98119.88
2023-12-30T16:04:16.128Z,98118.31
2023-12-30T16:06:42.769Z,98114.19
2023-12-30T16:09:09.438Z,98111.31
2023-12-30T16:11:36.824Z,98109.09
2023-12-30T16:14:05.723Z,98115.78
2023-12-30T16:16:34.909Z,98114.19
2023-12-30T16:19:01.921Z,98121.31
2023-12-30T16:21:28.648Z,98118.16
2023-12-30T16:23:55.296Z,98115.28
2023-12-30T16:26:23.984Z,98127.53
2023-12-30T16:28:50.605Z,98116.53
2023-12-30T16:31:17.370Z,98115.88
2023-12-30T16:33:44.961Z,98108.88
2023-12-30T16:36:12.748Z,98110.63
2023-12-30T16:38:39.412Z,98104.28
2023-12-30T16:41:06.061Z,98109.50
2023-12-30T16:43:33.355Z,98108.56
2023-12-30T16:46:00.439Z,98103.78
2023-12-30T16:48:27.241Z,98105.84
2023-12-30T16:50:53.908Z,98104.09
2023-12-30T16:53:20.546Z,98108.53
2023-12-30T16:55:47.293Z,98101.69
2023-12-30T16:58:14.061Z,98106.44
2023-12-30T17:00:40.707Z,98100.69
2023-12-30T17:03:07.693Z,98098.13
2023-12-30T17:05:34.376Z,98094.66
2023-12-30T17:08:00.983Z,98097.19
2023-12-30T17:10:27.622Z,98096.81
2023-12-30T17:12:54.222Z,98087.47
2023-12-30T17:15:20.842Z,98078.56
2023-12-30T17:17:47.511Z,98084.41
2023-12-30T17:20:16.978Z,98079.94
2023-12-30T17:22:43.840Z,98076.78
2023-12-30T17:25:10.598Z,98077.53
2023-12-30T17:27:37.521Z,98082.94
2023-12-30T17:30:07.259Z,98085.28
2023-12-30T17:32:34.471Z,98080.31
2023-12-30T17:35:01.158Z,98077.47
2023-12-30T17:37:27.918Z,98080.78
2023-12-30T17:39:54.661Z,98082.19
2023-12-30T17:42:21.952Z,98086.91
2023-12-30T17:44:50.543Z,98082.44
2023-12-30T17:47:17.220Z,98083.69
2023-12-30T17:53:23.762Z,98082.22
2023-12-30T17:55:50.666Z,98082.81
2023-12-30T17:58:17.408Z,98079.63
2023-12-30T18:00:44.135Z,98082.44
2023-12-30T18:03:11.231Z,98081.47
2023-12-30T18:05:38.197Z,98084.47
2023-12-30T18:08:07.461Z,98084.44
2023-12-30T18:10:34.663Z,98075.66
2023-12-30T18:13:01.654Z,98080.56
2023-12-30T18:15:28.770Z,98076.09
2023-12-30T18:17:55.520Z,98073.72
2023-12-30T18:20:25.608Z,98075.59
2023-12-30T18:22:52.731Z,98075.09
2023-12-30T18:25:20.684Z,98066.06
2023-12-30T18:27:47.545Z,98067.16
2023-12-30T18:30:14.681Z,98076.16
2023-12-30T18:32:41.344Z,98068.69
2023-12-30T18:35:08.279Z,98070.88
2023-12-30T18:37:35.458Z,98067.81
2023-12-30T18:40:03.810Z,98067.94
2023-12-30T18:42:30.584Z,98068.84
2023-12-30T18:44:57.264Z,98068.66
2023-12-30T18:47:23.913Z,98067.66
2023-12-30T18:49:50.590Z,98059.69
2023-12-30T18:52:18.970Z,98068.97
2023-12-30T18:54:45.667Z,98056.34
2023-12-30T18:57:12.686Z,98058.63
2023-12-30T18:59:39.292Z,98068.19
2023-12-30T19:02:06.024Z,98063.44
2023-12-30T19:04:35.948Z,98059.44
2023-12-30T19:07:04.318Z,98055.47
2023-12-30T19:09:31.059Z,98054.97
2023-12-30T19:11:57.761Z,98048.81
2023-12-30T19:14:24.822Z,98043.75
2023-12-30T19:16:51.680Z,98038.47
2023-12-30T19:19:18.537Z,98041.44
2023-12-30T19:21:45.190Z,98043.47
2023-12-30T19:24:11.830Z,98045.94
2023-12-30T19:26:38.637Z,98040.88
2023-12-30T19:29:05.254Z,98040.34
2023-12-30T19:31:32.008Z,98038.59
2023-12-30T19:33:58.735Z,98029.53
2023-12-30T19:36:26.007Z,98024.56
2023-12-30T19:38:56.128Z,98027.34
2023-12-30T19:41:22.796Z,98029.03
2023-12-30T19:43:49.535Z,98026.63
2023-12-30T19:46:16.257Z,98029.91
2023-12-30T19:48:43.690Z,98035.19
2023-12-30T19:51:10.765Z,98033.09
2023-12-30T19:53:37.535Z,98030.50
2023-12-30T19:56:04.521Z,98029.69
2023-12-30T19:58:32.159Z,98026.53
2023-12-30T20:00:59.138Z,98014.97
2023-12-30T20:03:25.813Z,98020.94
2023-12-30T20:05:53.256Z,98014.78
2023-12-30T20:08:20.085Z,98011.38
2023-12-30T20:10:47.914Z,98014.47
2023-12-30T20:13:15.186Z,98015.66
2023-12-30T20:15:41.945Z,98009.50
2023-12-30T20:18:08.649Z,98010.09
2023-12-30T20:20:35.333Z,98008.81
2023-12-30T20:23:02.220Z,98005.31
2023-12-30T20:25:31.807Z,98008.88
2023-12-30T20:27:58.864Z,98011.34
2023-12-30T20:30:25.754Z,98008.47
2023-12-30T20:32:52.427Z,98004.75
2023-12-30T20:35:19.092Z,97999.09
2023-12-30T20:37:45.795Z,97998.13
2023-12-30T20:40:12.981Z,97993.03
2023-12-30T20:42:39.996Z,97995.72
2023-12-30T20:45:06.818Z,97991.25
2023-12-30T20:47:33.611Z,98000.44
2023-12-30T20:50:00.322Z,97987.03
2023-12-30T20:52:27.031Z,97989.81
2023-12-30T20:54:53.687Z,97997.34
2023-12-30T20:57:20.370Z,97993.06
2023-12-30T20:59:47.328Z,97980.84
2023-12-30T21:02:16.320Z,97984.41
2023-12-30T21:04:43.152Z,97982.81
2023-12-30T21:07:09.888Z,97985.28
2023-12-30T21:09:38.625Z,97974.84
2023-12-30T21:12:08.119Z,97974.63
2023-12-30T21:14:34.900Z,97975.78
2023-12-30T21:17:04.519Z,97976.09
2023-12-30T21:19:35.621Z,97969.44
2023-12-30T21:22:02.462Z,97966.81
2023-12-30T21:24:29.156Z,97964.25
2023-12-30T21:26:55.810Z,97965.91
2023-12-30T21:29:24.165Z,97961.63
2023-12-30T21:31:53.610Z,97963.81
2023-12-30T21:34:20.268Z,97955.03
2023-12-30T21:36:46.886Z,97955.34
2023-12-30T21:39:13.974Z,97953.53
2023-12-30T21:41:40.943Z,97953.31
2023-12-30T21:44:07.658Z,97945.34
2023-12-30T21:46:36.076Z,97943.25
2023-12-30T21:49:02.764Z,97943.31
2023-12-30T21:51:29.434Z,97938.03
2023-12-30T21:53:56.155Z,97936.44
2023-12-30T21:56:25.837Z,97936.22
2023-12-30T21:58:52.492Z,97929.03
2023-12-30T22:01:19.258Z,97925.84
2023-12-30T22:03:45.987Z,97923.25
2023-12-30T22:06:13.530Z,97914.41
2023-12-30T22:08:41.008Z,97920.94
2023-12-30T22:11:07.653Z,97920.78
2023-12-30T22:13:34.295Z,97912.53
2023-12-30T22:16:01.982Z,97910.66
2023-12-30T22:18:29.033Z,97909.13
2023-12-30T22:20:55.923Z,97909.41
2023-12-30T22:23:22.937Z,97905.44
2023-12-30T22:25:49.719Z,97902.53
2023-12-30T22:28:16.370Z,97899.06
2023-12-30T22:30:43.125Z,97903.41
2023-12-30T22:33:10.006Z,97900.81
2023-12-30T22:35:36.696Z,97902.16
2023-12-30T22:38:03.659Z,97897.66
2023-12-30T22:40:30.500Z,97890.72
2023-12-30T22:42:57.208Z,97881.41
2023-12-30T22:45:24.223Z,97877.41
2023-12-30T22:47:51.030Z,97873.72
2023-12-30T22:50:18.327Z,97874.53
2023-12-30T22:52:45.126Z,97863.59
2023-12-30T22:55:11.908Z,97864.97
2023-12-30T22:57:38.707Z,97871.13
2023-12-30T23:00:11.275Z,97860.47
2023-12-30T23:02:38.290Z,97857.03
2023-12-30T23:05:05.336Z,97854.94
2023-12-30T23:07:32.089Z,97849.66
2023-12-30T23:09:58.783Z,97846.16
2023-12-30T23:12:25.842Z,97844.28
2023-12-30T23:14:52.509Z,97841.91
2023-12-30T23:17:19.157Z,97840.09
2023-12-30T23:19:46.623Z,97840.38
2023-12-30T23:22:13.912Z,97838.78
2023-12-30T23:24:40.766Z,97842.03
2023-12-30T23:27:07.416Z,97838.63
2023-12-30T23:29:34.335Z,97834.06
2023-12-30T23:32:00.955Z,97822.06
2023-12-30T23:34:39.039Z,97818.59
2023-12-30T23:37:12.431Z,97817.00
2023-12-30T23:39:39.282Z,97809.31
2023-12-30T23:42:08.030Z,97796.59
2023-12-30T23:44:34.804Z,97799.03
2023-12-30T23:47:01.493Z,97797.75
2023-12-30T23:49:28.223Z,97799.97
2023-12-30T23:51:54.849Z,97796.19
2023-12-30T23:54:21.495Z,97791.94
2023-12-30T23:56:48.156Z,97780.44
2023-12-30T23:59:18.230Z,97785.63
